Time;durP1;ratioP1;P1;durP2;ratioP2;P2;SDS_P1;SDS_P2;PMS_P1;PMS_P2;Temp;Humidity;BMP_temperature;BMP_pressure;BME280_temperature;BME280_humidity;BME280_pressure;Samples;Min_cycle;Max_cycle;Signal;HPM_P1;HPM_P2
2022/11/20 00:01:24;;;;;;;35.75;20.13;;;;;;;;;;4961715;28;20635;-43
2022/11/20 00:03:54;;;;;;;33.13;20.17;;;;;;;;;;4963979;28;20186;-43
2022/11/20 00:06:21;;;;;;;36.22;20.60;;;;;;;;;;4965059;28;20170;-43
2022/11/20 00:08:47;;;;;;;35.40;20.40;;;;;;;;;;4970165;28;20226;-44
2022/11/20 00:11:18;;;;;;;36.08;19.30;;;;;;;;;;4966046;28;20201;-43
2022/11/20 00:13:44;;;;;;;35.47;19.98;;;;;;;;;;4966732;28;20177;-43
2022/11/20 00:16:11;;;;;;;30.58;18.25;;;;;;;;;;4963829;28;20217;-43
2022/11/20 00:18:37;;;;;;;36.25;18.80;;;;;;;;;;4969951;28;20181;-44
2022/11/20 00:21:04;;;;;;;28.15;18.83;;;;;;;;;;4959839;28;20254;-43
2022/11/20 00:23:30;;;;;;;33.95;19.55;;;;;;;;;;4967383;28;20170;-43
2022/11/20 00:25:56;;;;;;;40.53;21.98;;;;;;;;;;4965843;28;20554;-43
2022/11/20 00:28:22;;;;;;;35.73;21.40;;;;;;;;;;4966758;28;20250;-43
2022/11/20 00:30:48;;;;;;;32.20;19.07;;;;;;;;;;4964922;28;20410;-44
2022/11/20 00:33:14;;;;;;;33.00;20.20;;;;;;;;;;4970712;28;20461;-43
2022/11/20 00:35:40;;;;;;;33.10;18.37;;;;;;;;;;4961640;28;20460;-43
2022/11/20 00:38:06;;;;;;;38.23;21.40;;;;;;;;;;4966762;28;20416;-43
2022/11/20 00:40:31;;;;;;;31.80;18.43;;;;;;;;;;4964847;28;20435;-45
2022/11/20 00:42:57;;;;;;;25.90;18.20;;;;;;;;;;4963887;28;20505;-44
2022/11/20 00:45:23;;;;;;;31.77;17.77;;;;;;;;;;4966165;28;20422;-43
2022/11/20 00:47:49;;;;;;;31.57;17.77;;;;;;;;;;4963790;28;20416;-44
2022/11/20 00:50:15;;;;;;;29.93;18.53;;;;;;;;;;4964320;28;20456;-44
2022/11/20 00:52:41;;;;;;;27.23;18.20;;;;;;;;;;4963241;28;20518;-43
2022/11/20 00:55:07;;;;;;;28.50;17.17;;;;;;;;;;4969099;28;20982;-43
2022/11/20 00:57:33;;;;;;;27.17;17.58;;;;;;;;;;4963748;28;20413;-43
2022/11/20 00:59:59;;;;;;;27.30;18.30;;;;;;;;;;4961745;28;20648;-44
2022/11/20 01:02:25;;;;;;;27.17;16.70;;;;;;;;;;4964013;28;20863;-44
2022/11/20 01:04:51;;;;;;;28.90;17.27;;;;;;;;;;4963453;28;20854;-43
2022/11/20 01:07:17;;;;;;;34.47;18.15;;;;;;;;;;4965206;28;20414;-44
2022/11/20 01:09:43;;;;;;;25.90;16.30;;;;;;;;;;4967274;28;20545;-44
2022/11/20 01:12:09;;;;;;;28.87;17.10;;;;;;;;;;4966452;28;20496;-44
2022/11/20 01:14:36;;;;;;;28.23;18.60;;;;;;;;;;4962021;28;20417;-43
2022/11/20 01:17:02;;;;;;;23.45;16.52;;;;;;;;;;4959625;28;20414;-43
2022/11/20 01:19:28;;;;;;;35.07;17.70;;;;;;;;;;4966465;28;20666;-43
2022/11/20 01:21:55;;;;;;;29.57;18.07;;;;;;;;;;4965029;28;21081;-43
2022/11/20 01:24:21;;;;;;;32.03;18.95;;;;;;;;;;4965206;28;20766;-43
2022/11/20 01:26:48;;;;;;;31.95;18.00;;;;;;;;;;4965399;28;20175;-43
2022/11/20 01:29:16;;;;;;;25.08;15.75;;;;;;;;;;4965334;28;20733;-43
2022/11/20 01:31:42;;;;;;;29.77;17.65;;;;;;;;;;4960980;28;20212;-43
2022/11/20 01:34:10;;;;;;;29.55;16.65;;;;;;;;;;4965299;28;20182;-44
2022/11/20 01:36:37;;;;;;;27.90;15.20;;;;;;;;;;4964646;28;20182;-43
2022/11/20 01:39:08;;;;;;;32.63;16.73;;;;;;;;;;4962098;28;20180;-44
2022/11/20 01:44:25;;;;;;;27.33;17.40;;;;;;;;;;4963906;28;20177;-43
2022/11/20 01:47:02;;;;;;;30.23;18.15;;;;;;;;;;4961586;28;20683;-43
2022/11/20 01:49:34;;;;;;;31.20;16.25;;;;;;;;;;4965883;28;20224;-43
2022/11/20 01:52:06;;;;;;;28.27;16.65;;;;;;;;;;4963701;28;20296;-43
2022/11/20 01:54:36;;;;;;;25.70;15.13;;;;;;;;;;4958947;28;20179;-43
2022/11/20 01:57:03;;;;;;;26.70;16.98;;;;;;;;;;4965005;28;20181;-43
2022/11/20 01:59:30;;;;;;;26.55;16.40;;;;;;;;;;4950958;28;20178;-43
2022/11/20 02:01:56;;;;;;;26.75;17.88;;;;;;;;;;4961689;28;20240;-43
2022/11/20 02:04:23;;;;;;;30.80;17.38;;;;;;;;;;4962645;28;20186;-43
2022/11/20 02:06:57;;;;;;;31.08;17.27;;;;;;;;;;4963417;28;20181;-43
2022/11/20 02:09:23;;;;;;;32.13;18.02;;;;;;;;;;4968936;28;20229;-43
2022/11/20 02:11:49;;;;;;;29.73;17.37;;;;;;;;;;4961718;28;20210;-43
2022/11/20 02:14:15;;;;;;;27.25;16.52;;;;;;;;;;4963193;28;20814;-43
2022/11/20 02:16:45;;;;;;;29.50;16.95;;;;;;;;;;4962199;28;20277;-44
2022/11/20 02:19:31;;;;;;;31.67;15.77;;;;;;;;;;4967956;28;20178;-44
2022/11/20 02:21:57;;;;;;;26.27;16.10;;;;;;;;;;4965227;28;20201;-43
2022/11/20 02:24:23;;;;;;;30.40;15.75;;;;;;;;;;4959522;28;20535;-43
2022/11/20 02:27:08;;;;;;;31.02;16.83;;;;;;;;;;4960246;28;20182;-43
2022/11/20 02:29:40;;;;;;;22.48;14.98;;;;;;;;;;4958343;28;20217;-43
2022/11/20 02:32:06;;;;;;;27.50;16.05;;;;;;;;;;4962691;28;20202;-43
2022/11/20 02:34:32;;;;;;;25.30;15.18;;;;;;;;;;4965297;28;20265;-43
2022/11/20 02:36:59;;;;;;;26.20;15.65;;;;;;;;;;4962037;28;20226;-43
2022/11/20 02:39:26;;;;;;;21.90;14.85;;;;;;;;;;4963249;28;20206;-43
2022/11/20 02:41:53;;;;;;;29.52;17.00;;;;;;;;;;4961113;28;20201;-44
2022/11/20 02:44:19;;;;;;;24.42;16.67;;;;;;;;;;4962832;28;20651;-43
2022/11/20 02:46:45;;;;;;;28.63;16.33;;;;;;;;;;4960782;28;20667;-43
2022/11/20 02:49:11;;;;;;;24.97;16.10;;;;;;;;;;4960435;28;20222;-43
2022/11/20 02:51:37;;;;;;;32.20;16.70;;;;;;;;;;4960763;28;20433;-44
2022/11/20 02:54:03;;;;;;;31.75;17.77;;;;;;;;;;4959705;28;20639;-44
2022/11/20 02:56:29;;;;;;;25.10;15.70;;;;;;;;;;4960750;28;20182;-43
2022/11/20 02:58:56;;;;;;;29.38;16.67;;;;;;;;;;4959735;28;20418;-44
2022/11/20 03:01:22;;;;;;;29.98;17.02;;;;;;;;;;4965218;28;20190;-43
2022/11/20 03:03:52;;;;;;;33.07;18.30;;;;;;;;;;4962783;28;20702;-43
2022/11/20 03:06:18;;;;;;;28.85;16.83;;;;;;;;;;4959477;28;20402;-43
2022/11/20 03:08:44;;;;;;;30.00;16.58;;;;;;;;;;4960727;28;20170;-43
2022/11/20 03:11:10;;;;;;;30.83;16.50;;;;;;;;;;4961911;28;20257;-43
2022/11/20 03:13:36;;;;;;;27.75;16.20;;;;;;;;;;4964712;28;20227;-43
2022/11/20 03:16:06;;;;;;;25.25;15.55;;;;;;;;;;4962919;28;20174;-43
2022/11/20 03:18:32;;;;;;;25.35;16.70;;;;;;;;;;4957376;28;20185;-43
2022/11/20 03:20:58;;;;;;;24.93;16.73;;;;;;;;;;4963497;28;20886;-43
2022/11/20 03:23:25;;;;;;;26.20;15.75;;;;;;;;;;4957929;28;20440;-43
2022/11/20 03:25:50;;;;;;;26.58;16.50;;;;;;;;;;4964615;28;20181;-43
2022/11/20 03:28:16;;;;;;;27.17;14.77;;;;;;;;;;4956622;28;20186;-43
2022/11/20 03:30:42;;;;;;;28.07;15.67;;;;;;;;;;4963456;28;20420;-43
2022/11/20 03:33:08;;;;;;;23.37;14.10;;;;;;;;;;4961674;28;20463;-43
2022/11/20 03:35:36;;;;;;;27.20;16.40;;;;;;;;;;4964138;28;20422;-43
2022/11/20 03:38:02;;;;;;;31.25;16.17;;;;;;;;;;4966205;28;20416;-43
2022/11/20 03:40:28;;;;;;;20.80;14.27;;;;;;;;;;4964735;28;20184;-43
2022/11/20 03:42:54;;;;;;;27.30;16.47;;;;;;;;;;4969710;28;20441;-43
2022/11/20 03:45:20;;;;;;;24.40;15.10;;;;;;;;;;4964824;28;20422;-43
2022/11/20 03:47:46;;;;;;;33.53;17.00;;;;;;;;;;4965317;28;20983;-43
2022/11/20 03:50:13;;;;;;;29.42;17.05;;;;;;;;;;4965839;28;20546;-43
2022/11/20 03:52:40;;;;;;;23.65;14.30;;;;;;;;;;4958096;28;20288;-43
2022/11/20 03:55:08;;;;;;;24.42;14.93;;;;;;;;;;4965011;28;20175;-43
2022/11/20 03:57:34;;;;;;;28.13;17.30;;;;;;;;;;4970133;28;20191;-43
2022/11/20 04:00:00;;;;;;;27.50;15.10;;;;;;;;;;4968808;28;20169;-43
2022/11/20 04:02:26;;;;;;;29.37;16.90;;;;;;;;;;4962529;28;21000;-43
2022/11/20 04:04:52;;;;;;;25.90;16.93;;;;;;;;;;4962747;28;20458;-43
2022/11/20 04:07:17;;;;;;;33.23;18.93;;;;;;;;;;4967140;28;20414;-43
2022/11/20 04:09:43;;;;;;;28.17;15.97;;;;;;;;;;4970693;28;20416;-42
2022/11/20 04:12:09;;;;;;;24.20;16.50;;;;;;;;;;4964805;28;20461;-43
2022/11/20 04:14:35;;;;;;;30.77;18.63;;;;;;;;;;4968059;28;20417;-43
2022/11/20 04:17:01;;;;;;;27.27;16.10;;;;;;;;;;4967099;28;20886;-42
2022/11/20 04:19:27;;;;;;;28.70;16.37;;;;;;;;;;4960902;28;20222;-45
2022/11/20 04:21:53;;;;;;;23.20;16.17;;;;;;;;;;4967490;28;20433;-42
2022/11/20 04:24:19;;;;;;;24.07;15.43;;;;;;;;;;4965805;28;20421;-42
2022/11/20 04:26:45;;;;;;;28.00;17.80;;;;;;;;;;4966579;28;20994;-42
2022/11/20 04:29:12;;;;;;;23.93;16.27;;;;;;;;;;4965161;28;20851;-43
2022/11/20 04:31:38;;;;;;;25.08;16.50;;;;;;;;;;4965377;28;20524;-42
2022/11/20 04:34:05;;;;;;;25.35;15.35;;;;;;;;;;4965365;28;20720;-42
2022/11/20 04:36:32;;;;;;;27.75;15.93;;;;;;;;;;4963988;28;20262;-42
2022/11/20 04:38:59;;;;;;;23.02;15.05;;;;;;;;;;4969604;28;20179;-41
2022/11/20 04:41:26;;;;;;;26.60;16.55;;;;;;;;;;4963594;28;20697;-43
2022/11/20 04:43:58;;;;;;;25.20;14.93;;;;;;;;;;4963732;28;20209;-43
2022/11/20 04:46:24;;;;;;;27.65;15.43;;;;;;;;;;4965243;28;20169;-43
2022/11/20 04:48:50;;;;;;;26.58;16.35;;;;;;;;;;4962972;28;20254;-43
2022/11/20 04:51:16;;;;;;;28.40;16.97;;;;;;;;;;4963262;28;20623;-43
2022/11/20 04:53:42;;;;;;;28.80;16.10;;;;;;;;;;4963558;28;20543;-42
2022/11/20 04:56:10;;;;;;;24.63;16.27;;;;;;;;;;4968366;28;20460;-43
2022/11/20 04:58:36;;;;;;;22.63;14.95;;;;;;;;;;4963102;28;20228;-42
2022/11/20 05:01:06;;;;;;;23.43;16.27;;;;;;;;;;4960324;28;20206;-42
2022/11/20 05:03:33;;;;;;;24.90;15.35;;;;;;;;;;4956308;28;20418;-43
2022/11/20 05:06:02;;;;;;;26.10;17.15;;;;;;;;;;4963415;28;20170;-41
2022/11/20 05:08:28;;;;;;;21.70;13.82;;;;;;;;;;4966746;28;20221;-42
2022/11/20 05:10:54;;;;;;;21.58;13.85;;;;;;;;;;4964334;28;20287;-41
2022/11/20 05:13:20;;;;;;;22.20;14.33;;;;;;;;;;4966361;28;20289;-42
2022/11/20 05:15:46;;;;;;;22.33;14.23;;;;;;;;;;4962977;28;20405;-42
2022/11/20 05:18:12;;;;;;;25.03;15.33;;;;;;;;;;4958666;28;20418;-43
2022/11/20 05:20:38;;;;;;;23.27;14.77;;;;;;;;;;4966221;28;20417;-44
2022/11/20 05:23:04;;;;;;;26.60;15.13;;;;;;;;;;4963380;28;20483;-42
2022/11/20 05:25:30;;;;;;;23.77;15.10;;;;;;;;;;4966188;28;20420;-43
2022/11/20 05:27:56;;;;;;;23.63;14.83;;;;;;;;;;4963067;28;20417;-42
2022/11/20 05:30:22;;;;;;;23.77;15.73;;;;;;;;;;4964778;28;20793;-42
2022/11/20 05:32:48;;;;;;;26.63;15.73;;;;;;;;;;4960693;28;20843;-43
2022/11/20 05:35:14;;;;;;;27.93;15.97;;;;;;;;;;4964595;28;20429;-43
2022/11/20 05:37:40;;;;;;;25.87;15.23;;;;;;;;;;4964733;28;20426;-43
2022/11/20 05:40:06;;;;;;;21.90;14.13;;;;;;;;;;4961325;28;20492;-45
2022/11/20 05:42:32;;;;;;;28.42;16.52;;;;;;;;;;4963677;28;20437;-42
2022/11/20 05:44:59;;;;;;;23.15;15.95;;;;;;;;;;4962780;28;20175;-43
2022/11/20 05:47:25;;;;;;;24.40;16.33;;;;;;;;;;4962770;28;20186;-41
2022/11/20 05:49:51;;;;;;;24.63;16.30;;;;;;;;;;4962545;28;20186;-43
2022/11/20 05:52:17;;;;;;;27.30;17.23;;;;;;;;;;4967117;28;20208;-42
2022/11/20 05:54:43;;;;;;;24.00;15.43;;;;;;;;;;4963269;28;20834;-43
2022/11/20 05:57:11;;;;;;;26.03;16.43;;;;;;;;;;4959501;28;20470;-44
2022/11/20 05:59:37;;;;;;;26.50;15.77;;;;;;;;;;4961357;28;20455;-43
2022/11/20 06:02:03;;;;;;;28.70;16.67;;;;;;;;;;4962019;28;20186;-44
2022/11/20 06:04:29;;;;;;;25.20;15.45;;;;;;;;;;4965686;28;20984;-44
2022/11/20 06:06:55;;;;;;;25.10;14.82;;;;;;;;;;4963688;28;20186;-42
2022/11/20 06:09:21;;;;;;;25.60;14.80;;;;;;;;;;4966039;28;20185;-43
2022/11/20 06:11:47;;;;;;;30.73;17.00;;;;;;;;;;4961611;28;20511;-42
2022/11/20 06:14:13;;;;;;;27.37;15.87;;;;;;;;;;4957731;28;20414;-42
2022/11/20 06:16:39;;;;;;;27.10;15.70;;;;;;;;;;4965403;28;20409;-43
2022/11/20 06:19:05;;;;;;;23.63;14.90;;;;;;;;;;4962487;28;20557;-43
2022/11/20 06:21:31;;;;;;;24.83;14.30;;;;;;;;;;4964941;28;20933;-42
2022/11/20 06:23:57;;;;;;;26.10;15.85;;;;;;;;;;4962024;28;20413;-44
2022/11/20 06:26:24;;;;;;;22.73;14.77;;;;;;;;;;4963907;28;20190;-45
2022/11/20 06:28:51;;;;;;;22.92;15.15;;;;;;;;;;4960754;28;20467;-42
2022/11/20 06:31:18;;;;;;;29.75;16.30;;;;;;;;;;4963007;28;20240;-42
2022/11/20 06:33:44;;;;;;;23.85;15.95;;;;;;;;;;4964312;28;20198;-42
2022/11/20 06:36:11;;;;;;;28.55;16.35;;;;;;;;;;4960698;28;20186;-43
2022/11/20 06:38:38;;;;;;;25.70;15.60;;;;;;;;;;4962531;28;20162;-43
2022/11/20 06:41:04;;;;;;;21.52;14.32;;;;;;;;;;4961441;28;20186;-43
2022/11/20 06:43:30;;;;;;;23.25;15.95;;;;;;;;;;4961973;28;20194;-43
2022/11/20 06:45:57;;;;;;;26.52;15.30;;;;;;;;;;4967163;28;20235;-44
2022/11/20 06:48:24;;;;;;;22.30;13.82;;;;;;;;;;4962154;28;20269;-43
2022/11/20 06:50:50;;;;;;;22.85;14.85;;;;;;;;;;4962834;28;20181;-42
2022/11/20 06:53:16;;;;;;;22.63;14.63;;;;;;;;;;4958633;28;20293;-43
2022/11/20 06:55:46;;;;;;;23.38;14.70;;;;;;;;;;4958889;28;20183;-42
2022/11/20 06:58:12;;;;;;;22.52;15.25;;;;;;;;;;4962925;28;20253;-43
2022/11/20 07:00:38;;;;;;;23.67;15.80;;;;;;;;;;4963440;28;20756;-42
2022/11/20 07:03:06;;;;;;;23.00;14.80;;;;;;;;;;4962055;28;20215;-42
2022/11/20 07:05:33;;;;;;;22.38;15.98;;;;;;;;;;4966980;28;20836;-44
2022/11/20 07:07:59;;;;;;;29.15;15.13;;;;;;;;;;4964618;28;20670;-43
2022/11/20 07:10:25;;;;;;;25.60;16.13;;;;;;;;;;4966341;28;20188;-42
2022/11/20 07:12:52;;;;;;;24.30;14.30;;;;;;;;;;4970962;28;20212;-42
2022/11/20 07:15:18;;;;;;;23.88;13.80;;;;;;;;;;4968061;28;20174;-42
2022/11/20 07:17:44;;;;;;;20.08;14.57;;;;;;;;;;4969379;28;20176;-42
2022/11/20 07:20:10;;;;;;;27.58;16.73;;;;;;;;;;4966768;28;20580;-43
2022/11/20 07:22:36;;;;;;;24.60;15.30;;;;;;;;;;4970829;28;20288;-42
2022/11/20 07:25:02;;;;;;;22.37;14.70;;;;;;;;;;4970972;28;20267;-41
2022/11/20 07:27:28;;;;;;;22.45;14.63;;;;;;;;;;4961381;28;20417;-42
2022/11/20 07:29:55;;;;;;;21.17;12.38;;;;;;;;;;4971672;28;20595;-43
2022/11/20 07:32:21;;;;;;;19.20;13.32;;;;;;;;;;4959081;28;20203;-43
2022/11/20 07:34:47;;;;;;;23.75;13.38;;;;;;;;;;4967043;28;20182;-43
2022/11/20 07:37:13;;;;;;;23.17;13.05;;;;;;;;;;4961314;28;20170;-43
2022/11/20 07:39:39;;;;;;;18.17;12.38;;;;;;;;;;4967463;28;20675;-43
2022/11/20 07:42:06;;;;;;;20.33;12.40;;;;;;;;;;4961536;28;20617;-43
2022/11/20 07:44:32;;;;;;;20.70;12.02;;;;;;;;;;4967509;28;20178;-42
2022/11/20 07:46:58;;;;;;;20.55;12.77;;;;;;;;;;4965952;28;20180;-42
2022/11/20 07:49:24;;;;;;;20.52;12.57;;;;;;;;;;4964357;28;20533;-42
2022/11/20 07:51:51;;;;;;;22.43;14.87;;;;;;;;;;4958666;28;20198;-42
2022/11/20 07:54:17;;;;;;;24.77;15.82;;;;;;;;;;4969297;28;21179;-42
2022/11/20 07:56:43;;;;;;;21.40;15.53;;;;;;;;;;4964861;28;20209;-42
2022/11/20 07:59:11;;;;;;;24.27;16.50;;;;;;;;;;4968005;28;20422;-42
2022/11/20 08:01:37;;;;;;;25.17;17.75;;;;;;;;;;4962703;28;20428;-42
2022/11/20 08:04:03;;;;;;;29.83;18.60;;;;;;;;;;4970485;28;20247;-43
2022/11/20 08:06:29;;;;;;;25.97;17.00;;;;;;;;;;4963134;28;20463;-43
2022/11/20 08:08:55;;;;;;;22.20;14.57;;;;;;;;;;4971032;28;20443;-43
2022/11/20 08:14:12;;;;;;;22.45;16.10;;;;;;;;;;4966408;28;20474;-43
2022/11/20 08:16:38;;;;;;;25.92;17.17;;;;;;;;;;4963274;28;20257;-42
2022/11/20 08:19:04;;;;;;;25.45;17.00;;;;;;;;;;4967233;28;20185;-42
2022/11/20 08:21:31;;;;;;;27.88;18.27;;;;;;;;;;4960520;28;20278;-42
2022/11/20 08:23:57;;;;;;;31.13;18.20;;;;;;;;;;4967444;28;20224;-42
2022/11/20 08:26:23;;;;;;;32.47;20.58;;;;;;;;;;4963557;28;20200;-42
2022/11/20 08:28:49;;;;;;;36.40;22.17;;;;;;;;;;4967357;28;20186;-43
2022/11/20 08:31:15;;;;;;;35.60;20.65;;;;;;;;;;4960813;28;20431;-42
2022/11/20 08:33:41;;;;;;;37.33;22.10;;;;;;;;;;4962779;28;20576;-43
2022/11/20 08:36:07;;;;;;;49.37;22.90;;;;;;;;;;4961367;28;20407;-42
2022/11/20 08:38:33;;;;;;;39.40;23.15;;;;;;;;;;4967234;28;20400;-42
2022/11/20 08:43:44;;;;;;;48.05;23.02;;;;;;;;;;4963938;28;20188;-43
2022/11/20 08:46:10;;;;;;;48.30;23.57;;;;;;;;;;4962559;28;20179;-43
2022/11/20 08:48:36;;;;;;;37.80;21.67;;;;;;;;;;4967077;28;20890;-43
2022/11/20 08:51:02;;;;;;;42.40;22.07;;;;;;;;;;4960851;28;20466;-42
2022/11/20 08:53:28;;;;;;;50.63;24.02;;;;;;;;;;4966957;28;20464;-42
2022/11/20 08:55:54;;;;;;;38.97;23.30;;;;;;;;;;4964418;28;20640;-43
2022/11/20 08:58:20;;;;;;;37.87;21.37;;;;;;;;;;4965561;28;20445;-43
2022/11/20 09:00:46;;;;;;;38.20;19.88;;;;;;;;;;4962896;28;20416;-44
2022/11/20 09:03:13;;;;;;;31.60;16.83;;;;;;;;;;4962102;28;20177;-44
2022/11/20 09:05:39;;;;;;;26.05;17.45;;;;;;;;;;4959684;28;20798;-44
2022/11/20 09:08:05;;;;;;;25.30;17.40;;;;;;;;;;4958910;28;20423;-43
2022/11/20 09:10:32;;;;;;;27.60;16.10;;;;;;;;;;4955821;28;20480;-44
2022/11/20 09:12:58;;;;;;;21.77;14.40;;;;;;;;;;4962520;28;20467;-45
2022/11/20 09:15:24;;;;;;;20.20;12.63;;;;;;;;;;4963260;28;20512;-45
2022/11/20 09:17:58;;;;;;;19.83;14.63;;;;;;;;;;4970092;28;20420;-45
2022/11/20 09:20:24;;;;;;;23.73;15.70;;;;;;;;;;4963010;28;20549;-45
2022/11/20 09:22:50;;;;;;;21.03;16.40;;;;;;;;;;4962978;28;20837;-45
2022/11/20 09:25:16;;;;;;;22.13;15.27;;;;;;;;;;4966634;28;20511;-45
2022/11/20 09:27:43;;;;;;;17.60;13.13;;;;;;;;;;4962821;28;20412;-46
2022/11/20 09:30:10;;;;;;;17.77;12.60;;;;;;;;;;4955986;28;20384;-45
2022/11/20 09:32:36;;;;;;;14.57;10.57;;;;;;;;;;4965879;28;20522;-45
2022/11/20 09:35:02;;;;;;;12.90;11.37;;;;;;;;;;4960745;28;20909;-45
2022/11/20 09:37:28;;;;;;;15.70;12.50;;;;;;;;;;4966048;28;20406;-44
2022/11/20 09:39:54;;;;;;;16.23;12.43;;;;;;;;;;4964717;28;20441;-45
2022/11/20 09:42:27;;;;;;;13.63;11.23;;;;;;;;;;4963343;28;20451;-45
2022/11/20 09:44:59;;;;;;;14.13;10.40;;;;;;;;;;4962167;28;20477;-45
2022/11/20 09:47:31;;;;;;;14.20;10.93;;;;;;;;;;4962917;28;20913;-45
2022/11/20 09:50:21;;;;;;;18.80;12.50;;;;;;;;;;4967237;28;20500;-45
2022/11/20 09:52:55;;;;;;;17.77;12.83;;;;;;;;;;4958867;28;20477;-45
2022/11/20 09:55:21;;;;;;;16.93;13.00;;;;;;;;;;4958711;28;20460;-45
2022/11/20 09:57:48;;;;;;;16.83;12.70;;;;;;;;;;4960886;28;20414;-45
2022/11/20 10:00:15;;;;;;;19.63;14.00;;;;;;;;;;4968501;28;20861;-45
2022/11/20 10:02:45;;;;;;;12.80;11.37;;;;;;;;;;4964638;28;20440;-44
2022/11/20 10:05:43;;;;;;;16.30;11.33;;;;;;;;;;4967758;28;20504;-45
2022/11/20 10:08:13;;;;;;;15.83;12.00;;;;;;;;;;4946144;28;20919;-45
2022/11/20 10:10:39;;;;;;;17.83;12.50;;;;;;;;;;4952117;28;20787;-44
2022/11/20 10:13:11;;;;;;;13.60;11.20;;;;;;;;;;4952729;28;20464;-44
2022/11/20 10:15:45;;;;;;;18.23;12.97;;;;;;;;;;4953460;28;20434;-44
2022/11/20 10:18:16;;;;;;;14.70;11.60;;;;;;;;;;4949793;28;20424;-45
2022/11/20 10:20:45;;;;;;;14.90;11.40;;;;;;;;;;4951014;28;20462;-44
2022/11/20 10:23:23;;;;;;;13.40;10.00;;;;;;;;;;4951634;28;20418;-44
2022/11/20 10:26:01;;;;;;;15.53;10.63;;;;;;;;;;4953763;28;20421;-44
2022/11/20 10:28:27;;;;;;;14.77;10.57;;;;;;;;;;4972140;28;20409;-44
2022/11/20 10:31:00;;;;;;;15.40;11.90;;;;;;;;;;4961627;28;20432;-44
2022/11/20 10:33:27;;;;;;;18.70;12.13;;;;;;;;;;4952864;28;20514;-44
2022/11/20 10:36:04;;;;;;;16.67;11.73;;;;;;;;;;4947404;28;20522;-44
2022/11/20 10:38:41;;;;;;;16.70;11.60;;;;;;;;;;4952306;28;20485;-45
2022/11/20 10:41:25;;;;;;;14.60;11.53;;;;;;;;;;4951346;28;20533;-44
2022/11/20 10:43:59;;;;;;;17.90;11.50;;;;;;;;;;4949176;28;20797;-45
2022/11/20 10:46:26;;;;;;;17.40;11.87;;;;;;;;;;4955593;28;20414;-44
2022/11/20 10:48:52;;;;;;;14.40;10.80;;;;;;;;;;4964397;28;20941;-44
2022/11/20 10:51:37;;;;;;;13.03;9.73;;;;;;;;;;4952561;28;20928;-44
2022/11/20 10:54:19;;;;;;;17.47;11.50;;;;;;;;;;4958169;28;20834;-45
2022/11/20 10:56:52;;;;;;;13.17;10.80;;;;;;;;;;4961004;28;20514;-45
2022/11/20 10:59:28;;;;;;;15.50;9.70;;;;;;;;;;4961975;28;20411;-44
2022/11/20 11:01:54;;;;;;;14.03;10.83;;;;;;;;;;4956737;28;20430;-44
2022/11/20 11:04:23;;;;;;;16.83;10.10;;;;;;;;;;4963784;28;20801;-44
2022/11/20 11:06:49;;;;;;;23.30;10.90;;;;;;;;;;4961421;28;20952;-44
2022/11/20 11:09:23;;;;;;;18.20;10.77;;;;;;;;;;4962979;28;20422;-44
2022/11/20 11:11:49;;;;;;;12.80;8.00;;;;;;;;;;4960867;28;20446;-44
2022/11/20 11:14:16;;;;;;;14.37;9.37;;;;;;;;;;4967551;28;20407;-44
2022/11/20 11:16:52;;;;;;;12.80;9.27;;;;;;;;;;4963059;28;20775;-45
2022/11/20 11:19:18;;;;;;;13.07;9.50;;;;;;;;;;4959831;28;20416;-44
2022/11/20 11:21:48;;;;;;;15.00;9.90;;;;;;;;;;4960123;28;20528;-44
2022/11/20 11:24:32;;;;;;;12.57;9.90;;;;;;;;;;4962358;28;20406;-44
2022/11/20 11:26:59;;;;;;;15.17;11.03;;;;;;;;;;4963396;28;20954;-44
2022/11/20 11:29:29;;;;;;;16.50;11.10;;;;;;;;;;4963887;28;20468;-45
2022/11/20 11:32:05;;;;;;;11.70;8.80;;;;;;;;;;4961740;28;20194;-44
2022/11/20 11:34:31;;;;;;;14.10;10.20;;;;;;;;;;4958130;28;20465;-44
2022/11/20 11:36:58;;;;;;;13.97;9.30;;;;;;;;;;4961819;28;20411;-44
2022/11/20 11:39:25;;;;;;;14.10;9.40;;;;;;;;;;4961352;28;20408;-45
2022/11/20 11:41:51;;;;;;;15.30;10.00;;;;;;;;;;4965359;28;20954;-45
2022/11/20 11:47:04;;;;;;;15.17;9.60;;;;;;;;;;4959183;28;20411;-45
2022/11/20 11:49:30;;;;;;;11.70;8.80;;;;;;;;;;4958059;28;20414;-44
2022/11/20 11:51:59;;;;;;;15.00;9.00;;;;;;;;;;4967387;28;20472;-44
2022/11/20 11:54:25;;;;;;;11.67;9.20;;;;;;;;;;4952520;28;20720;-44
2022/11/20 11:56:52;;;;;;;14.30;9.63;;;;;;;;;;4961278;28;20422;-44
2022/11/20 11:59:27;;;;;;;13.63;8.50;;;;;;;;;;4960703;28;20430;-44
2022/11/20 12:02:04;;;;;;;11.97;8.70;;;;;;;;;;4970418;28;20431;-44
2022/11/20 12:04:44;;;;;;;15.50;9.67;;;;;;;;;;4953401;28;20497;-45
2022/11/20 12:07:20;;;;;;;10.47;8.27;;;;;;;;;;4966183;28;20439;-44
2022/11/20 12:09:48;;;;;;;12.80;8.43;;;;;;;;;;4968686;28;20426;-44
2022/11/20 12:12:18;;;;;;;14.63;9.17;;;;;;;;;;4963926;28;20511;-44
2022/11/20 12:14:47;;;;;;;13.63;9.17;;;;;;;;;;4965265;28;21130;-44
2022/11/20 12:17:14;;;;;;;11.47;8.57;;;;;;;;;;4965671;28;20412;-44
2022/11/20 12:19:40;;;;;;;13.83;7.90;;;;;;;;;;4943157;28;20490;-44
2022/11/20 12:22:11;;;;;;;13.67;8.60;;;;;;;;;;4961303;28;20438;-44
2022/11/20 12:24:52;;;;;;;13.43;9.30;;;;;;;;;;4973918;28;20884;-45
2022/11/20 12:27:37;;;;;;;11.73;8.10;;;;;;;;;;4965474;28;20447;-44
2022/11/20 12:30:12;;;;;;;10.83;8.17;;;;;;;;;;4967218;28;20464;-45
2022/11/20 12:32:50;;;;;;;12.47;8.67;;;;;;;;;;4961875;28;20491;-44
2022/11/20 12:35:35;;;;;;;12.83;9.03;;;;;;;;;;4959298;28;20936;-44
2022/11/20 12:38:24;;;;;;;12.17;8.70;;;;;;;;;;4967265;28;20468;-44
2022/11/20 12:40:50;;;;;;;12.57;9.03;;;;;;;;;;4951474;28;20513;-44
2022/11/20 12:46:20;;;;;;;15.80;10.67;;;;;;;;;;4966858;28;20445;-44
2022/11/20 12:48:58;;;;;;;12.50;7.93;;;;;;;;;;4963807;28;20432;-44
2022/11/20 12:51:30;;;;;;;13.40;8.53;;;;;;;;;;4966180;28;20930;-44
2022/11/20 12:54:14;;;;;;;14.37;8.30;;;;;;;;;;4964811;28;20834;-44
2022/11/20 12:56:47;;;;;;;13.70;9.40;;;;;;;;;;4957463;28;20418;-44
2022/11/20 12:59:16;;;;;;;15.50;11.13;;;;;;;;;;4964911;28;20399;-46
2022/11/20 13:01:54;;;;;;;17.57;10.67;;;;;;;;;;4957136;28;20523;-44
2022/11/20 13:04:49;;;;;;;17.30;10.90;;;;;;;;;;4963660;28;20417;-45
2022/11/20 13:07:16;;;;;;;13.50;9.60;;;;;;;;;;4964333;28;20801;-44
2022/11/20 13:09:48;;;;;;;15.03;9.73;;;;;;;;;;4965461;28;20836;-45
2022/11/20 13:12:24;;;;;;;15.17;9.97;;;;;;;;;;4966288;28;20461;-44
2022/11/20 13:15:11;;;;;;;15.82;9.85;;;;;;;;;;4963337;28;20424;-44
2022/11/20 13:17:42;;;;;;;13.98;9.45;;;;;;;;;;4957342;28;20189;-45
2022/11/20 13:20:14;;;;;;;18.05;11.05;;;;;;;;;;4964283;28;20175;-44
2022/11/20 13:22:45;;;;;;;14.45;9.60;;;;;;;;;;4967956;28;20207;-44
2022/11/20 13:25:22;;;;;;;20.08;10.27;;;;;;;;;;4961777;28;20178;-44
2022/11/20 13:27:49;;;;;;;16.77;10.00;;;;;;;;;;4962226;28;20178;-44
2022/11/20 13:30:17;;;;;;;17.00;10.43;;;;;;;;;;4962981;28;20269;-45
2022/11/20 13:32:54;;;;;;;19.87;11.20;;;;;;;;;;4960152;28;20186;-45
2022/11/20 13:35:27;;;;;;;15.30;10.57;;;;;;;;;;4969761;28;20820;-44
2022/11/20 13:38:01;;;;;;;15.88;10.07;;;;;;;;;;4962807;28;20518;-45
2022/11/20 13:40:27;;;;;;;17.38;10.68;;;;;;;;;;4966014;28;20206;-44
2022/11/20 13:42:53;;;;;;;15.82;10.75;;;;;;;;;;4963206;28;20245;-45
2022/11/20 13:45:26;;;;;;;18.73;11.80;;;;;;;;;;4958309;28;20191;-44
2022/11/20 13:47:53;;;;;;;19.23;11.32;;;;;;;;;;4965985;28;20476;-44
2022/11/20 13:50:19;;;;;;;18.17;11.32;;;;;;;;;;4965789;28;20178;-44
2022/11/20 13:52:57;;;;;;;15.23;10.38;;;;;;;;;;4963422;28;20197;-45
2022/11/20 13:55:29;;;;;;;23.73;11.38;;;;;;;;;;4964423;28;20643;-44
2022/11/20 13:58:03;;;;;;;17.92;11.48;;;;;;;;;;4962310;28;20274;-44
2022/11/20 14:00:29;;;;;;;15.45;10.75;;;;;;;;;;4962598;28;20201;-45
2022/11/20 14:03:01;;;;;;;16.98;10.57;;;;;;;;;;4962506;28;20194;-44
2022/11/20 14:05:27;;;;;;;16.67;11.05;;;;;;;;;;4967459;28;20649;-44
2022/11/20 14:07:54;;;;;;;19.02;12.60;;;;;;;;;;4964576;28;20205;-44
2022/11/20 14:10:25;;;;;;;18.07;11.20;;;;;;;;;;4959273;28;20189;-44
2022/11/20 14:12:51;;;;;;;20.08;12.07;;;;;;;;;;4966814;28;20465;-44
2022/11/20 14:15:28;;;;;;;20.25;13.13;;;;;;;;;;4964001;28;20682;-44
2022/11/20 14:17:54;;;;;;;22.50;13.20;;;;;;;;;;4964025;28;20176;-44
2022/11/20 14:20:23;;;;;;;18.80;11.82;;;;;;;;;;4964001;28;20497;-44
2022/11/20 14:22:52;;;;;;;17.93;10.90;;;;;;;;;;4962664;28;20190;-44
2022/11/20 14:25:26;;;;;;;19.00;11.63;;;;;;;;;;4964004;28;20550;-44
2022/11/20 14:27:53;;;;;;;21.13;12.23;;;;;;;;;;4960929;28;20771;-45
2022/11/20 14:30:21;;;;;;;17.70;11.90;;;;;;;;;;4962923;28;20406;-44
2022/11/20 14:32:48;;;;;;;21.50;13.32;;;;;;;;;;4964770;28;20263;-44
2022/11/20 14:35:35;;;;;;;21.30;13.20;;;;;;;;;;4960729;28;20190;-44
2022/11/20 14:38:02;;;;;;;20.20;13.23;;;;;;;;;;4959579;28;20411;-44
2022/11/20 14:40:28;;;;;;;19.50;12.40;;;;;;;;;;4962091;28;20224;-44